createdAt,value
2017-09-30T00:00:43.458Z,99.90
2017-09-30T00:03:11.701Z,99.90
2017-09-30T00:05:39.177Z,99.90
2017-09-30T00:08:06.902Z,99.90
2017-09-30T00:10:34.381Z,99.90
2017-09-30T00:13:02.941Z,99.90
2017-09-30T00:15:30.441Z,99.90
2017-09-30T00:17:57.918Z,99.90
2017-09-30T00:20:26.157Z,99.90
2017-09-30T00:22:53.656Z,99.90
2017-09-30T00:25:21.898Z,99.90
2017-09-30T00:27:49.374Z,99.90
2017-09-30T00:30:17.642Z,99.90
2017-09-30T00:32:45.117Z,99.90
2017-09-30T00:35:13.364Z,99.90
2017-09-30T00:37:40.865Z,99.90
2017-09-30T00:40:08.787Z,99.90
2017-09-30T00:42:36.496Z,99.90
2017-09-30T00:45:03.993Z,99.90
2017-09-30T00:47:31.469Z,99.90
2017-09-30T00:49:58.944Z,99.90
2017-09-30T00:52:27.209Z,99.90
2017-09-30T00:54:54.693Z,99.90
2017-09-30T00:57:22.191Z,99.90
2017-09-30T00:59:49.686Z,99.90
2017-09-30T01:02:17.945Z,99.90
2017-09-30T01:04:45.437Z,99.90
2017-09-30T01:07:13.001Z,99.90
2017-09-30T01:09:40.481Z,99.90
2017-09-30T01:12:08.245Z,99.90
2017-09-30T01:14:35.737Z,99.90
2017-09-30T01:17:03.209Z,99.90
2017-09-30T01:19:31.175Z,99.90
2017-09-30T01:21:58.678Z,99.90
2017-09-30T01:24:26.157Z,99.90
2017-09-30T01:26:53.637Z,99.90
2017-09-30T01:29:21.136Z,99.90
2017-09-30T01:31:48.613Z,99.90
2017-09-30T01:34:16.093Z,99.90
2017-09-30T01:36:43.594Z,99.90
2017-09-30T01:39:11.837Z,99.90
2017-09-30T01:41:39.318Z,99.90
2017-09-30T01:44:07.678Z,99.90
2017-09-30T01:46:35.159Z,99.90
2017-09-30T01:49:03.405Z,99.90
2017-09-30T01:51:30.906Z,99.90
2017-09-30T01:53:58.387Z,99.90
2017-09-30T01:56:25.860Z,99.90
2017-09-30T01:58:53.354Z,99.90
2017-09-30T02:01:21.606Z,99.90
2017-09-30T02:03:49.080Z,99.90
2017-09-30T02:06:16.582Z,99.90
2017-09-30T02:08:44.062Z,99.90
2017-09-30T02:11:11.543Z,99.90
2017-09-30T02:13:39.042Z,99.90
2017-09-30T02:16:06.516Z,99.90
2017-09-30T02:18:33.998Z,99.90
2017-09-30T02:21:02.265Z,99.90
2017-09-30T02:23:29.740Z,99.90
2017-09-30T02:25:57.215Z,99.90
2017-09-30T02:28:25.033Z,99.90
2017-09-30T02:30:52.510Z,99.90
2017-09-30T02:33:19.986Z,99.90
2017-09-30T02:35:47.709Z,99.90
2017-09-30T02:38:15.189Z,99.90
2017-09-30T02:40:42.665Z,99.90
2017-09-30T02:43:10.171Z,99.90
2017-09-30T02:45:37.649Z,99.90
2017-09-30T02:48:05.123Z,99.90
2017-09-30T02:50:32.662Z,99.90
2017-09-30T02:53:00.149Z,99.90
2017-09-30T02:55:27.621Z,99.90
2017-09-30T02:57:55.900Z,99.90
2017-09-30T03:00:24.149Z,99.90
2017-09-30T03:02:51.626Z,99.90
2017-09-30T03:05:19.125Z,99.90
2017-09-30T03:07:46.601Z,99.90
2017-09-30T03:10:14.073Z,99.90
2017-09-30T03:12:41.569Z,99.90
2017-09-30T03:15:09.809Z,99.90
2017-09-30T03:17:37.290Z,99.90
2017-09-30T03:20:05.565Z,99.90
2017-09-30T03:22:33.880Z,99.90
2017-09-30T03:25:01.361Z,99.90
2017-09-30T03:27:28.857Z,99.90
2017-09-30T03:29:57.105Z,99.90
2017-09-30T03:32:24.584Z,99.90
2017-09-30T03:34:52.085Z,99.90
2017-09-30T03:37:19.647Z,99.90
2017-09-30T03:39:47.122Z,99.90
2017-09-30T03:42:14.618Z,99.90
2017-09-30T03:44:42.861Z,99.90
2017-09-30T03:47:10.338Z,99.90
2017-09-30T03:49:37.842Z,99.90
2017-09-30T03:52:05.322Z,99.90
2017-09-30T03:54:32.797Z,99.90
2017-09-30T03:57:00.293Z,99.90
2017-09-30T03:59:28.537Z,99.90
2017-09-30T04:01:56.020Z,99.90
2017-09-30T04:04:24.281Z,99.90
2017-09-30T04:06:51.753Z,99.90
2017-09-30T04:09:19.989Z,99.90
2017-09-30T04:11:47.481Z,99.90
2017-09-30T04:14:15.725Z,99.90
2017-09-30T04:16:43.197Z,99.90
2017-09-30T04:19:10.699Z,99.90
2017-09-30T04:21:38.172Z,99.90
2017-09-30T04:24:05.650Z,99.90
2017-09-30T04:26:33.144Z,99.90
2017-09-30T04:29:01.390Z,99.90
2017-09-30T04:31:28.865Z,99.90
2017-09-30T04:33:56.362Z,99.90
2017-09-30T04:36:23.840Z,99.90
2017-09-30T04:38:51.322Z,99.90
2017-09-30T04:41:18.817Z,99.90
2017-09-30T04:43:47.062Z,99.90
2017-09-30T04:46:14.542Z,99.90
2017-09-30T04:48:42.809Z,99.90
2017-09-30T04:51:11.061Z,99.90
2017-09-30T04:53:38.537Z,99.90
2017-09-30T04:56:06.037Z,99.90
2017-09-30T04:58:34.212Z,99.90
2017-09-30T05:01:01.709Z,99.90
2017-09-30T05:03:29.209Z,99.90
2017-09-30T05:05:56.693Z,99.90
2017-09-30T05:08:24.169Z,99.90
2017-09-30T05:10:51.666Z,99.90
2017-09-30T05:13:19.914Z,99.90
2017-09-30T05:15:47.389Z,99.90
2017-09-30T05:18:14.893Z,99.90
2017-09-30T05:20:42.373Z,99.90
2017-09-30T05:23:09.858Z,99.90
2017-09-30T05:25:37.357Z,99.90
2017-09-30T05:28:04.833Z,99.90
2017-09-30T05:30:32.311Z,99.90
2017-09-30T05:32:59.805Z,99.90
2017-09-30T05:35:28.053Z,99.90
2017-09-30T05:37:55.613Z,99.90
2017-09-30T05:40:23.114Z,99.90
2017-09-30T05:42:50.589Z,99.90
2017-09-30T05:45:18.069Z,99.90
2017-09-30T05:47:45.570Z,99.90
2017-09-30T05:50:13.850Z,99.90
2017-09-30T05:52:41.362Z,99.90
2017-09-30T05:55:08.865Z,99.90
2017-09-30T05:57:36.349Z,99.90
2017-09-30T06:00:03.829Z,99.90
2017-09-30T06:02:31.329Z,99.90
2017-09-30T06:04:59.569Z,99.90
2017-09-30T06:07:27.045Z,99.90
2017-09-30T06:09:54.546Z,99.90
2017-09-30T06:12:22.025Z,99.90
2017-09-30T06:14:49.501Z,99.90
2017-09-30T06:17:16.998Z,99.90
2017-09-30T06:19:44.472Z,99.90
2017-09-30T06:22:11.949Z,99.90
2017-09-30T06:24:39.454Z,99.90
2017-09-30T06:27:07.701Z,99.90
2017-09-30T06:29:35.174Z,99.90
2017-09-30T06:32:02.674Z,99.90
2017-09-30T06:34:30.452Z,99.90
2017-09-30T06:36:57.930Z,99.90
2017-09-30T06:39:25.428Z,99.90
2017-09-30T06:41:53.945Z,99.90
2017-09-30T06:44:21.424Z,99.90
2017-09-30T06:46:48.950Z,99.90
2017-09-30T06:49:16.412Z,99.90
2017-09-30T06:51:43.888Z,99.90
2017-09-30T06:54:11.386Z,99.90
2017-09-30T06:56:39.633Z,99.90
2017-09-30T06:59:07.124Z,99.90
2017-09-30T07:01:35.389Z,99.90
2017-09-30T07:04:03.642Z,99.90
2017-09-30T07:06:31.378Z,99.90
2017-09-30T07:08:58.930Z,99.90
2017-09-30T07:11:26.421Z,99.90
2017-09-30T07:13:53.897Z,99.90
2017-09-30T07:16:21.721Z,99.90
2017-09-30T07:18:49.197Z,99.90
2017-09-30T07:21:16.674Z,99.90
2017-09-30T07:26:18.246Z,99.90
2017-09-30T07:28:45.746Z,99.90
2017-09-30T07:31:13.226Z,99.90
2017-09-30T07:33:40.709Z,99.90
2017-09-30T07:36:08.537Z,99.90
2017-09-30T07:38:36.014Z,99.90
2017-09-30T07:41:04.265Z,99.90
2017-09-30T07:43:31.760Z,99.90
2017-09-30T07:45:59.241Z,99.90
2017-09-30T07:48:27.497Z,99.90
2017-09-30T07:50:55.005Z,99.90
2017-09-30T07:53:22.487Z,99.90
2017-09-30T07:55:49.965Z,99.90
2017-09-30T07:58:17.469Z,99.90
2017-09-30T08:00:44.959Z,99.90
2017-09-30T08:03:12.460Z,99.90
2017-09-30T08:05:40.728Z,99.90
2017-09-30T08:08:08.216Z,99.90
2017-09-30T08:10:35.701Z,99.90
2017-09-30T08:13:04.330Z,99.90
2017-09-30T08:15:32.569Z,99.90
2017-09-30T08:18:00.316Z,99.90
2017-09-30T08:20:27.813Z,99.90
2017-09-30T08:22:55.298Z,99.90
2017-09-30T08:25:23.540Z,99.90
2017-09-30T08:27:51.779Z,99.90
2017-09-30T08:30:19.284Z,99.90
2017-09-30T08:32:46.773Z,99.90
2017-09-30T08:35:14.281Z,99.90
2017-09-30T08:37:41.757Z,99.90
2017-09-30T08:40:09.804Z,99.90
2017-09-30T08:42:37.322Z,99.90
2017-09-30T08:45:04.806Z,99.90
2017-09-30T08:47:32.286Z,99.90
2017-09-30T08:49:59.789Z,99.90
2017-09-30T08:52:27.325Z,99.90
2017-09-30T08:54:55.569Z,99.90
2017-09-30T08:57:23.065Z,99.90
2017-09-30T08:59:51.305Z,99.90
2017-09-30T09:02:18.783Z,99.90
2017-09-30T09:04:46.279Z,99.90
2017-09-30T09:07:13.753Z,99.90
2017-09-30T09:09:41.236Z,98.90
2017-09-30T09:12:08.729Z,99.00
2017-09-30T09:14:36.969Z,97.60
2017-09-30T09:17:04.445Z,97.70
2017-09-30T09:19:32.046Z,96.00
2017-09-30T09:21:59.513Z,95.80
2017-09-30T09:24:26.989Z,94.90
2017-09-30T09:26:54.489Z,94.90
2017-09-30T09:29:23.005Z,93.30
2017-09-30T09:31:50.481Z,93.20
2017-09-30T09:34:17.973Z,91.40
2017-09-30T09:36:46.208Z,84.80
2017-09-30T09:39:13.676Z,84.70
2017-09-30T09:41:41.174Z,88.40
2017-09-30T09:44:09.689Z,87.20
2017-09-30T09:46:37.164Z,86.90
2017-09-30T09:49:04.654Z,90.50
2017-09-30T09:51:32.121Z,89.80
2017-09-30T09:54:00.363Z,80.50
2017-09-30T09:56:27.865Z,80.60
2017-09-30T09:58:56.105Z,74.70
2017-09-30T10:01:23.576Z,75.40
2017-09-30T10:03:51.836Z,76.80
2017-09-30T10:06:20.813Z,82.00
2017-09-30T10:08:48.506Z,81.90
2017-09-30T10:11:16.766Z,77.40
2017-09-30T10:13:44.237Z,77.40
2017-09-30T10:16:12.477Z,74.20
2017-09-30T10:18:39.969Z,74.20
2017-09-30T10:21:08.208Z,67.80
2017-09-30T10:23:35.680Z,67.80
2017-09-30T10:26:03.174Z,69.70
2017-09-30T10:28:31.410Z,68.00
2017-09-30T10:30:58.885Z,68.00
2017-09-30T10:33:26.381Z,68.40
2017-09-30T10:35:53.854Z,64.20
2017-09-30T10:38:21.329Z,65.90
2017-09-30T10:40:48.825Z,67.50
2017-09-30T10:43:17.061Z,63.90
2017-09-30T10:45:44.529Z,63.80
2017-09-30T10:48:12.025Z,62.60
2017-09-30T10:50:40.260Z,64.40
2017-09-30T10:53:07.728Z,64.40
2017-09-30T10:55:35.222Z,58.90
2017-09-30T10:58:02.694Z,62.30
2017-09-30T11:00:30.168Z,61.00
2017-09-30T11:02:57.657Z,59.60
2017-09-30T11:05:25.896Z,61.10
2017-09-30T11:07:53.365Z,61.00
2017-09-30T11:10:20.872Z,58.70
2017-09-30T11:12:49.114Z,62.80
2017-09-30T11:15:17.362Z,63.10
2017-09-30T11:17:44.910Z,63.00
2017-09-30T11:20:12.381Z,59.20
2017-09-30T11:22:39.852Z,58.70
2017-09-30T11:25:07.345Z,59.00
2017-09-30T11:27:35.582Z,60.00
2017-09-30T11:30:03.057Z,59.90
2017-09-30T11:32:32.056Z,61.60
2017-09-30T11:34:59.528Z,61.90
2017-09-30T11:37:27.819Z,59.10
2017-09-30T11:39:55.320Z,58.90
2017-09-30T11:42:22.799Z,52.30
2017-09-30T11:44:50.265Z,54.60
2017-09-30T11:47:18.521Z,53.50
2017-09-30T11:49:45.998Z,53.60
2017-09-30T11:52:13.469Z,53.80
2017-09-30T11:54:41.726Z,50.80
2017-09-30T11:57:09.197Z,50.70
2017-09-30T11:59:37.718Z,48.00
2017-09-30T12:02:05.209Z,48.00
2017-09-30T12:04:34.264Z,49.70
2017-09-30T12:07:01.781Z,49.70
2017-09-30T12:09:29.278Z,47.30
2017-09-30T12:11:56.749Z,46.90
2017-09-30T12:14:24.220Z,52.30
2017-09-30T12:16:51.714Z,50.20
2017-09-30T12:19:20.169Z,51.70
2017-09-30T12:21:47.641Z,51.60
2017-09-30T12:24:15.133Z,54.80
2017-09-30T12:26:42.651Z,54.90
2017-09-30T12:29:11.637Z,57.30
2017-09-30T12:31:40.646Z,56.70
2017-09-30T12:34:08.117Z,56.80
2017-09-30T12:36:36.539Z,60.00
2017-09-30T12:39:04.048Z,60.00
2017-09-30T12:41:32.285Z,59.80
2017-09-30T12:44:00.565Z,58.90
2017-09-30T12:46:28.065Z,58.80
2017-09-30T12:48:56.673Z,57.60
2017-09-30T12:51:24.146Z,57.60
2017-09-30T12:53:51.689Z,58.00
2017-09-30T12:56:19.165Z,58.70
2017-09-30T12:58:46.637Z,56.20
2017-09-30T13:01:14.129Z,57.70
2017-09-30T13:03:42.365Z,54.70
2017-09-30T13:06:09.870Z,54.50
2017-09-30T13:08:37.411Z,53.00
2017-09-30T13:11:05.678Z,52.20
2017-09-30T13:13:33.150Z,51.60
2017-09-30T13:16:01.461Z,48.30
2017-09-30T13:18:28.966Z,48.40
2017-09-30T13:20:56.477Z,48.40
2017-09-30T13:23:24.010Z,49.10
2017-09-30T13:25:51.485Z,48.80
2017-09-30T13:28:18.957Z,49.40
2017-09-30T13:30:46.721Z,50.30
2017-09-30T13:33:14.196Z,50.50
2017-09-30T13:35:41.665Z,52.50
2017-09-30T13:38:09.157Z,52.70
2017-09-30T13:40:37.402Z,53.90
2017-09-30T13:43:04.911Z,53.90
2017-09-30T13:45:32.473Z,56.80
2017-09-30T13:47:59.948Z,57.50
2017-09-30T13:50:27.418Z,59.50
2017-09-30T13:52:55.021Z,59.40
2017-09-30T13:55:22.514Z,60.00
2017-09-30T13:57:50.056Z,61.80
2017-09-30T14:00:17.581Z,61.40
2017-09-30T14:02:45.081Z,63.40
2017-09-30T14:05:12.556Z,63.80
2017-09-30T14:07:40.048Z,64.20
2017-09-30T14:10:07.529Z,64.70
2017-09-30T14:12:35.015Z,67.20
2017-09-30T14:15:02.609Z,69.80
2017-09-30T14:17:30.061Z,70.10
2017-09-30T14:19:57.533Z,70.20
2017-09-30T14:22:25.042Z,71.10
2017-09-30T14:24:52.588Z,72.50
2017-09-30T14:27:20.085Z,74.70
2017-09-30T14:29:47.585Z,77.00
2017-09-30T14:32:15.833Z,79.10
2017-09-30T14:34:43.309Z,79.10
2017-09-30T14:37:11.569Z,80.80
2017-09-30T14:39:39.045Z,80.80
2017-09-30T14:42:07.283Z,81.70
2017-09-30T14:44:34.781Z,81.70
2017-09-30T14:47:03.021Z,82.30
2017-09-30T14:49:30.489Z,82.30
2017-09-30T14:51:58.205Z,83.40
2017-09-30T14:54:25.677Z,82.90
2017-09-30T14:56:53.154Z,83.80
2017-09-30T14:59:21.298Z,83.90
2017-09-30T15:01:48.905Z,83.00
2017-09-30T15:04:16.386Z,83.70
2017-09-30T15:06:43.912Z,83.50
2017-09-30T15:09:11.398Z,84.70
2017-09-30T15:11:38.877Z,85.10
2017-09-30T15:14:06.374Z,88.60
2017-09-30T15:16:33.861Z,90.90
2017-09-30T15:19:02.110Z,92.90
2017-09-30T15:21:29.685Z,92.90
2017-09-30T15:23:57.464Z,93.90
2017-09-30T15:26:25.769Z,95.10
2017-09-30T15:28:53.261Z,95.10
2017-09-30T15:31:20.732Z,96.00
2017-09-30T15:33:48.213Z,97.10
2017-09-30T15:36:16.476Z,98.90
2017-09-30T15:38:44.740Z,99.80
2017-09-30T15:41:12.213Z,99.80
2017-09-30T15:43:40.473Z,99.90
2017-09-30T15:46:07.945Z,99.90
2017-09-30T15:48:36.465Z,99.90
2017-09-30T15:51:03.994Z,99.90
2017-09-30T15:53:32.266Z,99.90
2017-09-30T15:56:00.539Z,99.90
2017-09-30T15:58:28.838Z,99.90
2017-09-30T16:00:56.409Z,99.90
2017-09-30T16:03:23.935Z,99.90
2017-09-30T16:05:52.197Z,99.90
2017-09-30T16:08:19.667Z,99.90
2017-09-30T16:10:47.921Z,99.90
2017-09-30T16:13:15.616Z,99.90
2017-09-30T16:15:43.122Z,99.90
2017-09-30T16:18:10.628Z,99.90
2017-09-30T16:20:38.145Z,99.90
2017-09-30T16:23:05.669Z,99.90
2017-09-30T16:25:33.181Z,99.90
2017-09-30T16:28:01.484Z,99.90
2017-09-30T16:30:28.998Z,99.90
2017-09-30T16:32:56.473Z,99.90
2017-09-30T16:35:24.001Z,99.90
2017-09-30T16:37:51.507Z,99.90
2017-09-30T16:40:18.986Z,99.90
2017-09-30T16:42:46.555Z,99.90
2017-09-30T16:45:14.071Z,99.90
2017-09-30T16:47:42.342Z,99.90
2017-09-30T16:50:10.644Z,99.90
2017-09-30T16:52:38.155Z,99.90
2017-09-30T16:55:05.666Z,99.90
2017-09-30T16:57:33.202Z,99.90
2017-09-30T17:00:01.726Z,99.90
2017-09-30T17:02:29.201Z,99.90
2017-09-30T17:04:56.697Z,99.90
2017-09-30T17:07:24.936Z,99.90
2017-09-30T17:09:52.410Z,99.90
2017-09-30T17:12:19.901Z,99.90
2017-09-30T17:14:47.373Z,99.90
2017-09-30T17:17:15.141Z,99.90
2017-09-30T17:19:42.638Z,99.90
2017-09-30T17:22:10.110Z,99.90
2017-09-30T17:24:38.349Z,99.90
2017-09-30T17:27:05.842Z,99.90
2017-09-30T17:29:33.313Z,99.90
2017-09-30T17:32:01.545Z,99.90
2017-09-30T17:34:29.033Z,99.90
2017-09-30T17:36:57.277Z,99.90
2017-09-30T17:39:24.744Z,99.90
2017-09-30T17:41:52.233Z,99.90
2017-09-30T17:44:20.545Z,99.90
2017-09-30T17:46:48.052Z,99.90
2017-09-30T17:49:16.309Z,99.90
2017-09-30T17:51:43.783Z,99.90
2017-09-30T17:54:11.257Z,99.90
2017-09-30T17:56:39.512Z,99.90
2017-09-30T17:59:06.981Z,99.90
2017-09-30T18:01:35.246Z,99.90
2017-09-30T18:04:02.803Z,99.90
2017-09-30T18:06:31.059Z,99.90
2017-09-30T18:08:58.586Z,99.90
2017-09-30T18:11:26.093Z,99.90
2017-09-30T18:13:53.570Z,99.90
2017-09-30T18:16:21.808Z,99.90
2017-09-30T18:18:49.302Z,99.90
2017-09-30T18:21:17.541Z,99.90
2017-09-30T18:23:45.021Z,99.90
2017-09-30T18:26:12.513Z,99.90
2017-09-30T18:28:39.990Z,99.90
2017-09-30T18:31:07.651Z,99.90
2017-09-30T18:33:35.141Z,99.90
2017-09-30T18:36:02.621Z,99.90
2017-09-30T18:38:30.864Z,99.90
2017-09-30T18:40:58.361Z,99.90
2017-09-30T18:43:26.597Z,99.90
2017-09-30T18:45:54.130Z,99.90
2017-09-30T18:48:22.659Z,99.90
2017-09-30T18:50:50.917Z,99.90
2017-09-30T18:53:18.389Z,99.90
2017-09-30T18:55:46.656Z,99.90
2017-09-30T18:58:15.742Z,99.90
2017-09-30T19:00:43.221Z,99.90
2017-09-30T19:03:11.749Z,99.90
2017-09-30T19:05:39.221Z,99.90
2017-09-30T19:08:06.694Z,99.90
2017-09-30T19:10:34.973Z,99.90
2017-09-30T19:13:02.440Z,99.90
2017-09-30T19:15:30.685Z,99.90
2017-09-30T19:17:58.392Z,99.90
2017-09-30T19:20:26.677Z,99.90
2017-09-30T19:22:54.916Z,99.90
2017-09-30T19:25:22.751Z,99.90
2017-09-30T19:27:50.220Z,99.90
2017-09-30T19:30:17.694Z,99.90
2017-09-30T19:32:46.855Z,99.90
2017-09-30T19:35:14.365Z,99.90
2017-09-30T19:37:41.841Z,99.90
2017-09-30T19:40:10.101Z,99.90
2017-09-30T19:42:37.572Z,99.90
2017-09-30T19:45:05.817Z,99.90
2017-09-30T19:47:33.344Z,99.90
2017-09-30T19:50:00.856Z,99.90
2017-09-30T19:52:29.331Z,99.90
2017-09-30T19:54:56.946Z,99.90
2017-09-30T19:57:25.562Z,99.90
2017-09-30T19:59:54.020Z,99.90
2017-09-30T20:02:22.697Z,99.90
2017-09-30T20:04:50.243Z,99.90
2017-09-30T20:07:17.762Z,99.90
2017-09-30T20:09:46.111Z,99.90
2017-09-30T20:12:13.601Z,99.90
2017-09-30T20:14:41.841Z,99.90
2017-09-30T20:17:10.101Z,99.90
2017-09-30T20:19:37.626Z,99.90
2017-09-30T20:22:05.164Z,99.90
2017-09-30T20:24:33.524Z,99.90
2017-09-30T20:27:01.238Z,99.90
2017-09-30T20:29:28.708Z,99.90
2017-09-30T20:31:56.205Z,99.90
2017-09-30T20:34:23.682Z,99.90
2017-09-30T20:36:51.929Z,99.90
2017-09-30T20:39:20.934Z,99.90
2017-09-30T20:41:48.402Z,99.90
2017-09-30T20:44:16.638Z,99.90
2017-09-30T20:46:44.129Z,99.90
2017-09-30T20:49:12.382Z,99.90
2017-09-30T20:51:39.859Z,99.90
2017-09-30T20:54:08.122Z,99.90
2017-09-30T20:56:36.356Z,99.90
2017-09-30T20:59:03.834Z,99.90
2017-09-30T21:01:31.325Z,99.90
2017-09-30T21:03:59.573Z,99.90
2017-09-30T21:06:27.089Z,99.90
2017-09-30T21:08:54.581Z,99.90
2017-09-30T21:11:22.054Z,99.90
2017-09-30T21:13:49.529Z,99.90
2017-09-30T21:16:17.785Z,99.90
2017-09-30T21:18:45.261Z,99.90
2017-09-30T21:21:13.501Z,99.90
2017-09-30T21:23:40.996Z,99.90
2017-09-30T21:26:09.979Z,99.90
2017-09-30T21:28:37.453Z,99.90
2017-09-30T21:31:05.709Z,99.90
2017-09-30T21:33:33.185Z,99.90
2017-09-30T21:36:01.433Z,99.90
2017-09-30T21:38:29.692Z,99.90
2017-09-30T21:40:57.165Z,99.90
2017-09-30T21:43:24.640Z,99.90
2017-09-30T21:45:52.905Z,99.90
2017-09-30T21:48:20.377Z,99.90
2017-09-30T21:50:48.625Z,99.90
2017-09-30T21:53:17.907Z,99.90
2017-09-30T21:55:45.656Z,99.90
2017-09-30T21:58:13.129Z,99.90
2017-09-30T22:00:40.625Z,99.90
2017-09-30T22:03:08.885Z,99.90
2017-09-30T22:05:36.370Z,99.90
2017-09-30T22:08:04.645Z,99.90
2017-09-30T22:10:32.884Z,99.90
2017-09-30T22:13:00.361Z,99.90
2017-09-30T22:15:27.861Z,99.90
2017-09-30T22:17:55.341Z,99.90
2017-09-30T22:20:22.820Z,99.90
2017-09-30T22:22:50.316Z,99.90
2017-09-30T22:25:17.799Z,99.90
2017-09-30T22:27:45.281Z,99.90
2017-09-30T22:30:12.788Z,99.90
2017-09-30T22:32:40.293Z,99.90
2017-09-30T22:35:07.769Z,99.90
2017-09-30T22:37:36.768Z,99.90
2017-09-30T22:40:05.017Z,99.90
2017-09-30T22:42:32.501Z,99.90
2017-09-30T22:45:00.776Z,99.90
2017-09-30T22:47:28.256Z,99.90
2017-09-30T22:49:56.498Z,99.90
2017-09-30T22:52:24.001Z,99.90
2017-09-30T22:54:51.485Z,99.90
2017-09-30T22:57:18.965Z,99.90
2017-09-30T22:59:47.513Z,99.90
2017-09-30T23:02:14.991Z,99.90
2017-09-30T23:04:42.465Z,99.90
2017-09-30T23:07:11.474Z,99.90
2017-09-30T23:09:39.721Z,99.90
2017-09-30T23:12:07.192Z,99.90
2017-09-30T23:14:34.698Z,99.90
2017-09-30T23:17:02.177Z,99.90
2017-09-30T23:19:29.654Z,99.90
2017-09-30T23:21:57.165Z,99.90
2017-09-30T23:24:24.645Z,99.90
2017-09-30T23:26:52.134Z,99.90
2017-09-30T23:29:19.631Z,99.90
2017-09-30T23:31:47.206Z,99.90
2017-09-30T23:34:14.697Z,99.90
2017-09-30T23:36:42.196Z,99.90
2017-09-30T23:39:10.436Z,99.90
2017-09-30T23:41:37.913Z,99.90
2017-09-30T23:44:06.172Z,99.90
2017-09-30T23:46:33.648Z,99.90
2017-09-30T23:49:01.894Z,99.90
2017-09-30T23:51:29.389Z,99.90
2017-09-30T23:53:57.638Z,99.90
2017-09-30T23:56:25.113Z,99.90
2017-09-30T23:58:53.605Z,99.90
